sensor_id;sensor_type;location;lat;lon;timestamp;P1;durP1;ratioP1;P2;durP2;ratioP2
50066;SDS011;35952;52.524;13.340;2023-11-19T00:00:19;8.33;;;7.53;;
50066;SDS011;35952;52.524;13.340;2023-11-19T00:02:44;12.73;;;9.10;;
50066;SDS011;35952;52.524;13.340;2023-11-19T00:05:10;9.83;;;8.70;;
50066;SDS011;35952;52.524;13.340;2023-11-19T00:07:36;12.73;;;9.27;;
50066;SDS011;35952;52.524;13.340;2023-11-19T00:10:07;10.10;;;8.87;;
50066;SDS011;35952;52.524;13.340;2023-11-19T00:12:37;10.40;;;7.77;;
50066;SDS011;35952;52.524;13.340;2023-11-19T00:15:04;10.50;;;8.40;;
50066;SDS011;35952;52.524;13.340;2023-11-19T00:17:31;9.47;;;8.07;;
50066;SDS011;35952;52.524;13.340;2023-11-19T00:19:57;11.63;;;10.20;;
50066;SDS011;35952;52.524;13.340;2023-11-19T00:22:22;10.50;;;9.00;;
50066;SDS011;35952;52.524;13.340;2023-11-19T00:24:48;11.83;;;10.67;;
50066;SDS011;35952;52.524;13.340;2023-11-19T00:27:13;12.40;;;10.70;;
50066;SDS011;35952;52.524;13.340;2023-11-19T00:29:39;16.60;;;11.47;;
50066;SDS011;35952;52.524;13.340;2023-11-19T00:32:05;14.77;;;10.40;;
50066;SDS011;35952;52.524;13.340;2023-11-19T00:34:32;18.43;;;11.53;;
50066;SDS011;35952;52.524;13.340;2023-11-19T00:36:58;14.50;;;12.30;;
50066;SDS011;35952;52.524;13.340;2023-11-19T00:39:23;9.93;;;8.90;;
50066;SDS011;35952;52.524;13.340;2023-11-19T00:41:49;12.13;;;9.57;;
50066;SDS011;35952;52.524;13.340;2023-11-19T00:44:14;10.90;;;9.03;;
50066;SDS011;35952;52.524;13.340;2023-11-19T00:46:40;13.87;;;9.40;;
50066;SDS011;35952;52.524;13.340;2023-11-19T00:49:05;8.90;;;8.00;;
50066;SDS011;35952;52.524;13.340;2023-11-19T00:51:31;10.40;;;9.10;;
50066;SDS011;35952;52.524;13.340;2023-11-19T00:53:57;10.57;;;8.23;;
50066;SDS011;35952;52.524;13.340;2023-11-19T00:56:24;10.60;;;8.10;;
50066;SDS011;35952;52.524;13.340;2023-11-19T00:58:49;9.30;;;8.40;;
50066;SDS011;35952;52.524;13.340;2023-11-19T01:01:15;9.30;;;7.70;;
50066;SDS011;35952;52.524;13.340;2023-11-19T01:03:40;8.73;;;7.90;;
50066;SDS011;35952;52.524;13.340;2023-11-19T01:06:06;10.57;;;8.80;;
50066;SDS011;35952;52.524;13.340;2023-11-19T01:08:35;8.73;;;7.83;;
50066;SDS011;35952;52.524;13.340;2023-11-19T01:11:01;8.63;;;7.83;;
50066;SDS011;35952;52.524;13.340;2023-11-19T01:13:27;8.00;;;7.20;;
50066;SDS011;35952;52.524;13.340;2023-11-19T01:15:53;12.10;;;7.80;;
50066;SDS011;35952;52.524;13.340;2023-11-19T01:18:18;9.73;;;8.27;;
50066;SDS011;35952;52.524;13.340;2023-11-19T01:20:44;10.43;;;8.07;;
50066;SDS011;35952;52.524;13.340;2023-11-19T01:23:09;9.00;;;7.53;;
50066;SDS011;35952;52.524;13.340;2023-11-19T01:25:35;10.63;;;7.70;;
50066;SDS011;35952;52.524;13.340;2023-11-19T01:28:00;8.60;;;7.80;;
50066;SDS011;35952;52.524;13.340;2023-11-19T01:30:27;9.23;;;8.33;;
50066;SDS011;35952;52.524;13.340;2023-11-19T01:32:53;9.70;;;7.97;;
50066;SDS011;35952;52.524;13.340;2023-11-19T01:35:18;7.90;;;6.53;;
50066;SDS011;35952;52.524;13.340;2023-11-19T01:37:44;8.97;;;8.10;;
50066;SDS011;35952;52.524;13.340;2023-11-19T01:40:10;8.30;;;7.10;;
50066;SDS011;35952;52.524;13.340;2023-11-19T01:42:37;10.33;;;9.20;;
50066;SDS011;35952;52.524;13.340;2023-11-19T01:45:05;10.23;;;8.33;;
50066;SDS011;35952;52.524;13.340;2023-11-19T01:47:34;8.27;;;7.37;;
50066;SDS011;35952;52.524;13.340;2023-11-19T01:50:00;8.23;;;7.30;;
50066;SDS011;35952;52.524;13.340;2023-11-19T01:52:26;8.83;;;7.90;;
50066;SDS011;35952;52.524;13.340;2023-11-19T01:54:52;9.67;;;8.57;;
50066;SDS011;35952;52.524;13.340;2023-11-19T01:57:19;8.80;;;7.90;;
50066;SDS011;35952;52.524;13.340;2023-11-19T01:59:47;8.57;;;7.50;;
50066;SDS011;35952;52.524;13.340;2023-11-19T02:02:16;9.03;;;8.13;;
50066;SDS011;35952;52.524;13.340;2023-11-19T02:04:45;11.00;;;9.23;;
50066;SDS011;35952;52.524;13.340;2023-11-19T02:07:15;10.83;;;7.60;;
50066;SDS011;35952;52.524;13.340;2023-11-19T02:09:42;10.70;;;7.50;;
50066;SDS011;35952;52.524;13.340;2023-11-19T02:12:08;12.07;;;10.33;;
50066;SDS011;35952;52.524;13.340;2023-11-19T02:14:36;13.00;;;10.87;;
50066;SDS011;35952;52.524;13.340;2023-11-19T02:17:02;8.47;;;7.67;;
50066;SDS011;35952;52.524;13.340;2023-11-19T02:19:28;9.10;;;7.60;;
50066;SDS011;35952;52.524;13.340;2023-11-19T02:21:54;9.53;;;8.30;;
50066;SDS011;35952;52.524;13.340;2023-11-19T02:24:20;8.87;;;7.87;;
50066;SDS011;35952;52.524;13.340;2023-11-19T02:29:49;10.73;;;7.63;;
50066;SDS011;35952;52.524;13.340;2023-11-19T02:32:15;9.33;;;8.37;;
50066;SDS011;35952;52.524;13.340;2023-11-19T02:34:41;6.77;;;6.17;;
50066;SDS011;35952;52.524;13.340;2023-11-19T02:37:07;8.80;;;7.10;;
50066;SDS011;35952;52.524;13.340;2023-11-19T02:39:33;8.50;;;7.10;;
50066;SDS011;35952;52.524;13.340;2023-11-19T02:41:58;7.53;;;6.83;;
50066;SDS011;35952;52.524;13.340;2023-11-19T02:44:25;13.40;;;7.70;;
50066;SDS011;35952;52.524;13.340;2023-11-19T02:46:53;9.53;;;8.57;;
50066;SDS011;35952;52.524;13.340;2023-11-19T02:49:19;9.13;;;7.00;;
50066;SDS011;35952;52.524;13.340;2023-11-19T02:51:44;10.63;;;7.10;;
50066;SDS011;35952;52.524;13.340;2023-11-19T02:54:10;7.73;;;7.03;;
50066;SDS011;35952;52.524;13.340;2023-11-19T02:56:35;7.67;;;6.87;;
50066;SDS011;35952;52.524;13.340;2023-11-19T02:59:02;9.10;;;6.60;;
50066;SDS011;35952;52.524;13.340;2023-11-19T03:01:39;8.90;;;6.90;;
50066;SDS011;35952;52.524;13.340;2023-11-19T03:04:08;8.53;;;7.67;;
50066;SDS011;35952;52.524;13.340;2023-11-19T03:06:37;9.90;;;6.50;;
50066;SDS011;35952;52.524;13.340;2023-11-19T03:09:02;7.53;;;6.80;;
50066;SDS011;35952;52.524;13.340;2023-11-19T03:11:33;6.07;;;5.30;;
50066;SDS011;35952;52.524;13.340;2023-11-19T03:13:58;6.50;;;5.63;;
50066;SDS011;35952;52.524;13.340;2023-11-19T03:16:24;7.73;;;6.93;;
50066;SDS011;35952;52.524;13.340;2023-11-19T03:18:49;7.53;;;5.90;;
50066;SDS011;35952;52.524;13.340;2023-11-19T03:21:15;6.80;;;6.10;;
50066;SDS011;35952;52.524;13.340;2023-11-19T03:23:41;8.30;;;5.90;;
50066;SDS011;35952;52.524;13.340;2023-11-19T03:26:08;9.13;;;7.37;;
50066;SDS011;35952;52.524;13.340;2023-11-19T03:28:35;8.47;;;6.60;;
50066;SDS011;35952;52.524;13.340;2023-11-19T03:31:04;8.23;;;6.80;;
50066;SDS011;35952;52.524;13.340;2023-11-19T03:33:33;9.63;;;7.30;;
50066;SDS011;35952;52.524;13.340;2023-11-19T03:36:02;7.60;;;6.40;;
50066;SDS011;35952;52.524;13.340;2023-11-19T03:38:27;8.33;;;7.40;;
50066;SDS011;35952;52.524;13.340;2023-11-19T03:40:53;7.80;;;7.00;;
50066;SDS011;35952;52.524;13.340;2023-11-19T03:43:18;8.13;;;7.33;;
50066;SDS011;35952;52.524;13.340;2023-11-19T03:45:44;10.63;;;7.80;;
50066;SDS011;35952;52.524;13.340;2023-11-19T03:48:10;13.13;;;7.20;;
50066;SDS011;35952;52.524;13.340;2023-11-19T03:50:35;11.43;;;7.73;;
50066;SDS011;35952;52.524;13.340;2023-11-19T03:53:01;11.27;;;8.00;;
50066;SDS011;35952;52.524;13.340;2023-11-19T03:55:27;8.63;;;7.77;;
50066;SDS011;35952;52.524;13.340;2023-11-19T03:57:54;8.73;;;7.83;;
50066;SDS011;35952;52.524;13.340;2023-11-19T04:00:20;10.90;;;8.20;;
50066;SDS011;35952;52.524;13.340;2023-11-19T04:02:46;9.90;;;7.77;;
50066;SDS011;35952;52.524;13.340;2023-11-19T04:05:12;13.83;;;8.63;;
50066;SDS011;35952;52.524;13.340;2023-11-19T04:07:37;10.33;;;8.47;;
50066;SDS011;35952;52.524;13.340;2023-11-19T04:10:03;10.20;;;9.10;;
50066;SDS011;35952;52.524;13.340;2023-11-19T04:12:29;9.47;;;8.33;;
50066;SDS011;35952;52.524;13.340;2023-11-19T04:14:54;9.90;;;8.47;;
50066;SDS011;35952;52.524;13.340;2023-11-19T04:17:21;13.27;;;9.37;;
50066;SDS011;35952;52.524;13.340;2023-11-19T04:19:47;10.67;;;9.30;;
50066;SDS011;35952;52.524;13.340;2023-11-19T04:22:13;9.83;;;7.70;;
50066;SDS011;35952;52.524;13.340;2023-11-19T04:24:39;9.70;;;8.77;;
50066;SDS011;35952;52.524;13.340;2023-11-19T04:27:05;9.33;;;8.33;;
50066;SDS011;35952;52.524;13.340;2023-11-19T04:29:31;9.30;;;8.37;;
50066;SDS011;35952;52.524;13.340;2023-11-19T04:31:57;10.90;;;7.80;;
50066;SDS011;35952;52.524;13.340;2023-11-19T04:34:23;11.50;;;9.13;;
50066;SDS011;35952;52.524;13.340;2023-11-19T04:36:49;14.13;;;8.97;;
50066;SDS011;35952;52.524;13.340;2023-11-19T04:39:14;13.67;;;9.90;;
50066;SDS011;35952;52.524;13.340;2023-11-19T04:41:50;9.23;;;8.07;;
50066;SDS011;35952;52.524;13.340;2023-11-19T04:44:18;11.50;;;8.23;;
50066;SDS011;35952;52.524;13.340;2023-11-19T04:46:43;11.37;;;8.63;;
50066;SDS011;35952;52.524;13.340;2023-11-19T04:49:10;12.80;;;8.30;;
50066;SDS011;35952;52.524;13.340;2023-11-19T04:51:39;11.23;;;8.57;;
50066;SDS011;35952;52.524;13.340;2023-11-19T04:54:06;10.57;;;8.63;;
50066;SDS011;35952;52.524;13.340;2023-11-19T04:56:33;12.17;;;9.10;;
50066;SDS011;35952;52.524;13.340;2023-11-19T04:59:00;13.47;;;9.43;;
50066;SDS011;35952;52.524;13.340;2023-11-19T05:01:30;11.87;;;9.10;;
50066;SDS011;35952;52.524;13.340;2023-11-19T05:03:57;14.53;;;9.90;;
50066;SDS011;35952;52.524;13.340;2023-11-19T05:06:26;15.67;;;9.80;;
50066;SDS011;35952;52.524;13.340;2023-11-19T05:08:53;13.37;;;9.10;;
50066;SDS011;35952;52.524;13.340;2023-11-19T05:11:19;13.90;;;8.90;;
50066;SDS011;35952;52.524;13.340;2023-11-19T05:13:45;11.03;;;9.03;;
50066;SDS011;35952;52.524;13.340;2023-11-19T05:16:10;15.43;;;8.80;;
50066;SDS011;35952;52.524;13.340;2023-11-19T05:18:39;12.53;;;9.73;;
50066;SDS011;35952;52.524;13.340;2023-11-19T05:21:05;12.10;;;9.90;;
50066;SDS011;35952;52.524;13.340;2023-11-19T05:23:31;13.50;;;10.00;;
50066;SDS011;35952;52.524;13.340;2023-11-19T05:25:58;13.67;;;8.90;;
50066;SDS011;35952;52.524;13.340;2023-11-19T05:28:25;12.27;;;9.57;;
50066;SDS011;35952;52.524;13.340;2023-11-19T05:30:51;10.10;;;8.20;;
50066;SDS011;35952;52.524;13.340;2023-11-19T05:33:16;13.70;;;8.80;;
50066;SDS011;35952;52.524;13.340;2023-11-19T05:35:42;10.83;;;8.43;;
50066;SDS011;35952;52.524;13.340;2023-11-19T05:38:08;11.10;;;7.87;;
50066;SDS011;35952;52.524;13.340;2023-11-19T05:40:34;12.27;;;8.63;;
50066;SDS011;35952;52.524;13.340;2023-11-19T05:43:00;11.93;;;8.67;;
50066;SDS011;35952;52.524;13.340;2023-11-19T05:45:26;10.17;;;7.73;;
50066;SDS011;35952;52.524;13.340;2023-11-19T05:47:51;11.73;;;8.80;;
50066;SDS011;35952;52.524;13.340;2023-11-19T05:50:17;10.90;;;9.40;;
50066;SDS011;35952;52.524;13.340;2023-11-19T05:52:43;10.67;;;8.20;;
50066;SDS011;35952;52.524;13.340;2023-11-19T05:55:09;14.00;;;9.53;;
50066;SDS011;35952;52.524;13.340;2023-11-19T05:57:35;13.27;;;8.93;;
50066;SDS011;35952;52.524;13.340;2023-11-19T06:00:01;11.87;;;7.50;;
50066;SDS011;35952;52.524;13.340;2023-11-19T06:02:31;12.67;;;9.20;;
50066;SDS011;35952;52.524;13.340;2023-11-19T06:05:02;10.20;;;8.70;;
50066;SDS011;35952;52.524;13.340;2023-11-19T06:07:30;8.13;;;7.03;;
50066;SDS011;35952;52.524;13.340;2023-11-19T06:09:56;12.67;;;9.47;;
50066;SDS011;35952;52.524;13.340;2023-11-19T06:12:21;10.70;;;9.07;;
50066;SDS011;35952;52.524;13.340;2023-11-19T06:14:47;13.30;;;8.77;;
50066;SDS011;35952;52.524;13.340;2023-11-19T06:17:12;9.37;;;6.90;;
50066;SDS011;35952;52.524;13.340;2023-11-19T06:19:39;11.70;;;8.57;;
50066;SDS011;35952;52.524;13.340;2023-11-19T06:22:04;12.27;;;8.70;;
50066;SDS011;35952;52.524;13.340;2023-11-19T06:24:30;10.57;;;9.20;;
50066;SDS011;35952;52.524;13.340;2023-11-19T06:26:55;10.93;;;8.23;;
50066;SDS011;35952;52.524;13.340;2023-11-19T06:29:21;10.40;;;8.90;;
50066;SDS011;35952;52.524;13.340;2023-11-19T06:31:46;11.57;;;8.60;;
50066;SDS011;35952;52.524;13.340;2023-11-19T06:34:15;10.27;;;8.57;;
50066;SDS011;35952;52.524;13.340;2023-11-19T06:36:40;10.07;;;9.07;;
50066;SDS011;35952;52.524;13.340;2023-11-19T06:39:08;13.30;;;9.33;;
50066;SDS011;35952;52.524;13.340;2023-11-19T06:41:34;13.33;;;8.50;;
50066;SDS011;35952;52.524;13.340;2023-11-19T06:43:59;11.50;;;7.80;;
50066;SDS011;35952;52.524;13.340;2023-11-19T06:46:25;12.43;;;8.97;;
50066;SDS011;35952;52.524;13.340;2023-11-19T06:48:50;12.23;;;8.70;;
50066;SDS011;35952;52.524;13.340;2023-11-19T06:51:16;9.73;;;8.07;;
50066;SDS011;35952;52.524;13.340;2023-11-19T06:53:45;9.30;;;8.10;;
50066;SDS011;35952;52.524;13.340;2023-11-19T06:56:20;12.47;;;8.37;;
50066;SDS011;35952;52.524;13.340;2023-11-19T06:58:46;10.77;;;8.40;;
50066;SDS011;35952;52.524;13.340;2023-11-19T07:01:13;10.23;;;8.20;;
50066;SDS011;35952;52.524;13.340;2023-11-19T07:03:40;12.33;;;9.93;;
50066;SDS011;35952;52.524;13.340;2023-11-19T07:06:05;9.00;;;7.97;;
50066;SDS011;35952;52.524;13.340;2023-11-19T07:08:31;8.73;;;7.63;;
50066;SDS011;35952;52.524;13.340;2023-11-19T07:10:56;9.17;;;7.87;;
50066;SDS011;35952;52.524;13.340;2023-11-19T07:13:25;8.90;;;8.10;;
50066;SDS011;35952;52.524;13.340;2023-11-19T07:15:52;9.13;;;7.87;;
50066;SDS011;35952;52.524;13.340;2023-11-19T07:18:18;9.47;;;7.60;;
50066;SDS011;35952;52.524;13.340;2023-11-19T07:20:47;11.40;;;8.17;;
50066;SDS011;35952;52.524;13.340;2023-11-19T07:23:13;9.43;;;8.43;;
50066;SDS011;35952;52.524;13.340;2023-11-19T07:25:44;8.63;;;7.73;;
50066;SDS011;35952;52.524;13.340;2023-11-19T07:28:12;7.97;;;7.10;;
50066;SDS011;35952;52.524;13.340;2023-11-19T07:30:38;8.20;;;7.33;;
50066;SDS011;35952;52.524;13.340;2023-11-19T07:33:04;7.80;;;7.00;;
50066;SDS011;35952;52.524;13.340;2023-11-19T07:35:29;10.73;;;6.40;;
50066;SDS011;35952;52.524;13.340;2023-11-19T07:37:56;7.47;;;6.77;;
50066;SDS011;35952;52.524;13.340;2023-11-19T07:40:22;8.87;;;7.97;;
50066;SDS011;35952;52.524;13.340;2023-11-19T07:42:51;9.33;;;7.67;;
50066;SDS011;35952;52.524;13.340;2023-11-19T07:45:17;9.10;;;7.40;;
50066;SDS011;35952;52.524;13.340;2023-11-19T07:47:43;7.73;;;7.00;;
50066;SDS011;35952;52.524;13.340;2023-11-19T07:50:10;9.73;;;8.83;;
50066;SDS011;35952;52.524;13.340;2023-11-19T07:52:35;9.33;;;7.90;;
50066;SDS011;35952;52.524;13.340;2023-11-19T07:55:02;8.90;;;7.33;;
50066;SDS011;35952;52.524;13.340;2023-11-19T07:57:28;10.10;;;7.90;;
50066;SDS011;35952;52.524;13.340;2023-11-19T07:59:55;8.10;;;7.30;;
50066;SDS011;35952;52.524;13.340;2023-11-19T08:02:21;8.77;;;7.87;;
50066;SDS011;35952;52.524;13.340;2023-11-19T08:04:48;8.90;;;7.73;;
50066;SDS011;35952;52.524;13.340;2023-11-19T08:07:16;9.37;;;8.33;;
50066;SDS011;35952;52.524;13.340;2023-11-19T08:09:42;9.30;;;7.93;;
50066;SDS011;35952;52.524;13.340;2023-11-19T08:12:08;8.63;;;7.83;;
50066;SDS011;35952;52.524;13.340;2023-11-19T08:14:34;8.37;;;7.43;;
50066;SDS011;35952;52.524;13.340;2023-11-19T08:17:00;7.10;;;6.40;;
50066;SDS011;35952;52.524;13.340;2023-11-19T08:19:26;9.27;;;7.47;;
50066;SDS011;35952;52.524;13.340;2023-11-19T08:21:51;8.87;;;8.00;;
50066;SDS011;35952;52.524;13.340;2023-11-19T08:24:17;11.47;;;8.90;;
50066;SDS011;35952;52.524;13.340;2023-11-19T08:26:43;11.67;;;9.33;;
50066;SDS011;35952;52.524;13.340;2023-11-19T08:29:09;11.30;;;10.00;;
50066;SDS011;35952;52.524;13.340;2023-11-19T08:31:34;9.20;;;7.00;;
50066;SDS011;35952;52.524;13.340;2023-11-19T08:34:00;9.30;;;7.87;;
50066;SDS011;35952;52.524;13.340;2023-11-19T08:36:26;9.50;;;8.50;;
50066;SDS011;35952;52.524;13.340;2023-11-19T08:38:54;9.60;;;8.20;;
50066;SDS011;35952;52.524;13.340;2023-11-19T08:41:20;10.27;;;8.80;;
50066;SDS011;35952;52.524;13.340;2023-11-19T08:43:46;8.77;;;7.87;;
50066;SDS011;35952;52.524;13.340;2023-11-19T08:46:12;9.73;;;7.97;;
50066;SDS011;35952;52.524;13.340;2023-11-19T08:48:38;11.00;;;9.00;;
50066;SDS011;35952;52.524;13.340;2023-11-19T08:51:03;9.97;;;8.97;;
50066;SDS011;35952;52.524;13.340;2023-11-19T08:53:29;11.03;;;9.70;;
50066;SDS011;35952;52.524;13.340;2023-11-19T08:55:55;8.93;;;7.70;;
50066;SDS011;35952;52.524;13.340;2023-11-19T08:58:20;9.13;;;8.23;;
50066;SDS011;35952;52.524;13.340;2023-11-19T09:00:46;9.70;;;8.60;;
50066;SDS011;35952;52.524;13.340;2023-11-19T09:03:12;11.97;;;9.00;;
50066;SDS011;35952;52.524;13.340;2023-11-19T09:05:37;10.07;;;9.13;;
50066;SDS011;35952;52.524;13.340;2023-11-19T09:08:03;9.47;;;8.10;;
50066;SDS011;35952;52.524;13.340;2023-11-19T09:10:29;9.33;;;8.10;;
50066;SDS011;35952;52.524;13.340;2023-11-19T09:12:55;10.10;;;9.00;;
50066;SDS011;35952;52.524;13.340;2023-11-19T09:15:20;9.10;;;8.20;;
50066;SDS011;35952;52.524;13.340;2023-11-19T09:17:46;10.00;;;8.30;;
50066;SDS011;35952;52.524;13.340;2023-11-19T09:20:11;9.33;;;8.10;;
50066;SDS011;35952;52.524;13.340;2023-11-19T09:22:40;10.50;;;8.70;;
50066;SDS011;35952;52.524;13.340;2023-11-19T09:25:06;8.10;;;7.30;;
50066;SDS011;35952;52.524;13.340;2023-11-19T09:27:32;11.23;;;7.70;;
50066;SDS011;35952;52.524;13.340;2023-11-19T09:29:58;9.87;;;8.10;;
50066;SDS011;35952;52.524;13.340;2023-11-19T09:32:23;10.60;;;8.73;;
50066;SDS011;35952;52.524;13.340;2023-11-19T09:34:50;11.33;;;9.00;;
50066;SDS011;35952;52.524;13.340;2023-11-19T09:37:16;13.13;;;9.27;;
50066;SDS011;35952;52.524;13.340;2023-11-19T09:39:41;9.57;;;7.57;;
50066;SDS011;35952;52.524;13.340;2023-11-19T09:42:10;15.40;;;9.53;;
50066;SDS011;35952;52.524;13.340;2023-11-19T09:44:37;10.23;;;8.63;;
50066;SDS011;35952;52.524;13.340;2023-11-19T09:47:04;11.60;;;8.17;;
50066;SDS011;35952;52.524;13.340;2023-11-19T09:49:30;9.93;;;8.20;;
50066;SDS011;35952;52.524;13.340;2023-11-19T09:51:56;10.57;;;8.30;;
50066;SDS011;35952;52.524;13.340;2023-11-19T09:54:22;8.53;;;7.03;;
50066;SDS011;35952;52.524;13.340;2023-11-19T09:56:48;8.10;;;6.90;;
50066;SDS011;35952;52.524;13.340;2023-11-19T09:59:14;9.20;;;7.90;;
50066;SDS011;35952;52.524;13.340;2023-11-19T10:01:39;5.60;;;5.10;;
50066;SDS011;35952;52.524;13.340;2023-11-19T10:04:06;7.37;;;6.63;;
50066;SDS011;35952;52.524;13.340;2023-11-19T10:06:32;9.80;;;6.70;;
50066;SDS011;35952;52.524;13.340;2023-11-19T10:08:58;6.27;;;5.67;;
50066;SDS011;35952;52.524;13.340;2023-11-19T10:11:24;7.63;;;6.00;;
50066;SDS011;35952;52.524;13.340;2023-11-19T10:13:50;6.20;;;5.10;;
50066;SDS011;35952;52.524;13.340;2023-11-19T10:16:18;10.13;;;5.93;;
50066;SDS011;35952;52.524;13.340;2023-11-19T10:18:47;4.63;;;4.23;;
50066;SDS011;35952;52.524;13.340;2023-11-19T10:21:17;8.63;;;4.50;;
50066;SDS011;35952;52.524;13.340;2023-11-19T10:26:16;5.97;;;4.77;;
50066;SDS011;35952;52.524;13.340;2023-11-19T10:28:42;6.30;;;3.80;;
50066;SDS011;35952;52.524;13.340;2023-11-19T10:31:10;6.40;;;4.37;;
50066;SDS011;35952;52.524;13.340;2023-11-19T10:33:38;5.80;;;4.30;;
50066;SDS011;35952;52.524;13.340;2023-11-19T10:36:03;6.63;;;5.00;;
50066;SDS011;35952;52.524;13.340;2023-11-19T10:38:29;5.00;;;4.40;;
50066;SDS011;35952;52.524;13.340;2023-11-19T10:40:55;11.17;;;6.43;;
50066;SDS011;35952;52.524;13.340;2023-11-19T10:43:21;5.50;;;4.40;;
50066;SDS011;35952;52.524;13.340;2023-11-19T10:45:48;12.53;;;5.20;;
50066;SDS011;35952;52.524;13.340;2023-11-19T10:48:14;8.43;;;5.30;;
50066;SDS011;35952;52.524;13.340;2023-11-19T10:50:40;6.03;;;4.80;;
50066;SDS011;35952;52.524;13.340;2023-11-19T10:53:08;5.43;;;4.80;;
50066;SDS011;35952;52.524;13.340;2023-11-19T10:55:35;5.77;;;4.13;;
50066;SDS011;35952;52.524;13.340;2023-11-19T10:58:07;18.30;;;5.10;;
50066;SDS011;35952;52.524;13.340;2023-11-19T11:03:19;7.50;;;4.73;;
50066;SDS011;35952;52.524;13.340;2023-11-19T11:05:46;9.63;;;4.97;;
50066;SDS011;35952;52.524;13.340;2023-11-19T11:08:12;5.97;;;4.57;;
50066;SDS011;35952;52.524;13.340;2023-11-19T11:10:45;7.97;;;4.77;;
50066;SDS011;35952;52.524;13.340;2023-11-19T11:13:18;7.63;;;5.23;;
50066;SDS011;35952;52.524;13.340;2023-11-19T11:15:44;18.43;;;4.67;;
50066;SDS011;35952;52.524;13.340;2023-11-19T11:18:12;19.97;;;9.37;;
50066;SDS011;35952;52.524;13.340;2023-11-19T11:20:38;12.93;;;7.17;;
50066;SDS011;35952;52.524;13.340;2023-11-19T11:28:54;12.47;;;5.30;;
50066;SDS011;35952;52.524;13.340;2023-11-19T11:37:50;12.03;;;5.63;;
50066;SDS011;35952;52.524;13.340;2023-11-19T11:40:21;9.03;;;5.03;;
50066;SDS011;35952;52.524;13.340;2023-11-19T11:42:51;16.77;;;6.27;;
50066;SDS011;35952;52.524;13.340;2023-11-19T11:45:17;12.30;;;6.03;;
50066;SDS011;35952;52.524;13.340;2023-11-19T11:50:20;17.70;;;5.80;;
50066;SDS011;35952;52.524;13.340;2023-11-19T11:56:05;15.73;;;7.07;;
50066;SDS011;35952;52.524;13.340;2023-11-19T11:58:17;20.73;;;8.60;;
50066;SDS011;35952;52.524;13.340;2023-11-19T12:00:51;16.00;;;7.90;;
50066;SDS011;35952;52.524;13.340;2023-11-19T12:03:18;16.63;;;7.07;;
50066;SDS011;35952;52.524;13.340;2023-11-19T12:05:46;9.30;;;6.40;;
50066;SDS011;35952;52.524;13.340;2023-11-19T12:08:13;13.43;;;5.93;;
50066;SDS011;35952;52.524;13.340;2023-11-19T12:10:50;14.87;;;5.40;;
50066;SDS011;35952;52.524;13.340;2023-11-19T12:13:17;16.07;;;6.70;;
50066;SDS011;35952;52.524;13.340;2023-11-19T12:16:29;11.13;;;5.60;;
50066;SDS011;35952;52.524;13.340;2023-11-19T12:18:30;27.70;;;7.73;;
50066;SDS011;35952;52.524;13.340;2023-11-19T12:20:56;13.10;;;5.23;;
50066;SDS011;35952;52.524;13.340;2023-11-19T12:23:25;13.70;;;5.90;;
50066;SDS011;35952;52.524;13.340;2023-11-19T12:25:51;9.47;;;5.87;;
50066;SDS011;35952;52.524;13.340;2023-11-19T12:28:17;19.93;;;6.57;;
50066;SDS011;35952;52.524;13.340;2023-11-19T12:30:44;9.80;;;5.53;;
50066;SDS011;35952;52.524;13.340;2023-11-19T12:33:13;17.90;;;6.63;;
50066;SDS011;35952;52.524;13.340;2023-11-19T12:35:40;17.30;;;6.40;;
50066;SDS011;35952;52.524;13.340;2023-11-19T12:38:23;16.77;;;6.83;;
50066;SDS011;35952;52.524;13.340;2023-11-19T12:43:48;17.80;;;6.20;;
50066;SDS011;35952;52.524;13.340;2023-11-19T12:46:19;15.30;;;6.73;;
50066;SDS011;35952;52.524;13.340;2023-11-19T12:48:48;16.80;;;5.93;;
50066;SDS011;35952;52.524;13.340;2023-11-19T12:51:15;11.10;;;6.47;;
50066;SDS011;35952;52.524;13.340;2023-11-19T12:53:47;19.50;;;7.83;;
50066;SDS011;35952;52.524;13.340;2023-11-19T12:56:21;14.20;;;5.50;;
50066;SDS011;35952;52.524;13.340;2023-11-19T12:58:47;18.23;;;6.03;;
50066;SDS011;35952;52.524;13.340;2023-11-19T13:01:19;12.93;;;7.20;;
50066;SDS011;35952;52.524;13.340;2023-11-19T13:03:45;11.97;;;5.30;;
50066;SDS011;35952;52.524;13.340;2023-11-19T13:06:13;19.30;;;5.83;;
50066;SDS011;35952;52.524;13.340;2023-11-19T13:08:47;16.53;;;4.90;;
50066;SDS011;35952;52.524;13.340;2023-11-19T13:11:15;20.03;;;5.00;;
50066;SDS011;35952;52.524;13.340;2023-11-19T13:16:22;11.80;;;5.60;;
50066;SDS011;35952;52.524;13.340;2023-11-19T13:18:48;21.00;;;5.93;;
50066;SDS011;35952;52.524;13.340;2023-11-19T13:21:14;13.60;;;5.03;;
50066;SDS011;35952;52.524;13.340;2023-11-19T13:23:40;13.90;;;5.83;;
50066;SDS011;35952;52.524;13.340;2023-11-19T13:26:05;13.07;;;5.30;;
50066;SDS011;35952;52.524;13.340;2023-11-19T13:28:31;14.77;;;6.40;;
50066;SDS011;35952;52.524;13.340;2023-11-19T13:31:00;19.93;;;6.77;;
50066;SDS011;35952;52.524;13.340;2023-11-19T13:33:25;11.33;;;4.83;;
50066;SDS011;35952;52.524;13.340;2023-11-19T13:35:51;15.17;;;5.97;;
50066;SDS011;35952;52.524;13.340;2023-11-19T13:38:17;21.73;;;5.83;;
50066;SDS011;35952;52.524;13.340;2023-11-19T13:40:42;16.40;;;6.10;;
50066;SDS011;35952;52.524;13.340;2023-11-19T13:43:08;14.00;;;5.90;;
50066;SDS011;35952;52.524;13.340;2023-11-19T13:45:33;14.40;;;5.20;;
50066;SDS011;35952;52.524;13.340;2023-11-19T13:47:59;15.00;;;5.70;;
50066;SDS011;35952;52.524;13.340;2023-11-19T13:50:24;15.03;;;6.67;;
50066;SDS011;35952;52.524;13.340;2023-11-19T13:52:51;15.10;;;5.80;;
50066;SDS011;35952;52.524;13.340;2023-11-19T13:55:16;20.63;;;6.00;;
50066;SDS011;35952;52.524;13.340;2023-11-19T13:57:43;17.30;;;5.07;;
50066;SDS011;35952;52.524;13.340;2023-11-19T14:00:09;11.63;;;5.97;;
50066;SDS011;35952;52.524;13.340;2023-11-19T14:02:44;12.90;;;6.67;;
50066;SDS011;35952;52.524;13.340;2023-11-19T14:05:11;14.13;;;5.23;;
50066;SDS011;35952;52.524;13.340;2023-11-19T14:07:38;21.73;;;6.77;;
50066;SDS011;35952;52.524;13.340;2023-11-19T14:10:04;21.33;;;7.90;;
50066;SDS011;35952;52.524;13.340;2023-11-19T14:12:31;20.00;;;7.60;;
50066;SDS011;35952;52.524;13.340;2023-11-19T14:14:57;17.37;;;5.40;;
50066;SDS011;35952;52.524;13.340;2023-11-19T14:17:23;26.70;;;6.20;;
50066;SDS011;35952;52.524;13.340;2023-11-19T14:19:50;16.00;;;6.83;;
50066;SDS011;35952;52.524;13.340;2023-11-19T14:22:15;16.90;;;6.33;;
50066;SDS011;35952;52.524;13.340;2023-11-19T14:24:41;14.37;;;5.87;;
50066;SDS011;35952;52.524;13.340;2023-11-19T14:27:07;15.93;;;6.10;;
50066;SDS011;35952;52.524;13.340;2023-11-19T14:29:34;18.27;;;6.60;;
50066;SDS011;35952;52.524;13.340;2023-11-19T14:32:00;15.33;;;5.63;;
50066;SDS011;35952;52.524;13.340;2023-11-19T14:34:26;21.43;;;6.97;;
50066;SDS011;35952;52.524;13.340;2023-11-19T14:36:52;18.30;;;6.80;;
50066;SDS011;35952;52.524;13.340;2023-11-19T14:39:19;15.43;;;5.87;;
50066;SDS011;35952;52.524;13.340;2023-11-19T14:41:45;25.07;;;5.53;;
50066;SDS011;35952;52.524;13.340;2023-11-19T14:44:10;16.00;;;6.10;;
50066;SDS011;35952;52.524;13.340;2023-11-19T14:46:36;11.37;;;6.23;;
50066;SDS011;35952;52.524;13.340;2023-11-19T14:49:02;16.23;;;6.40;;
50066;SDS011;35952;52.524;13.340;2023-11-19T14:51:29;15.60;;;6.07;;
50066;SDS011;35952;52.524;13.340;2023-11-19T14:53:55;13.83;;;6.10;;